createdAt,value
2023-04-20T00:18:28.597Z,264
2023-04-20T00:38:28.594Z,265
2023-04-20T00:58:28.583Z,264
2023-04-20T01:18:28.594Z,264
2023-04-20T01:38:28.580Z,262
2023-04-20T01:58:28.591Z,263
2023-04-20T02:18:28.616Z,262
2023-04-20T02:38:28.609Z,264
2023-04-20T02:58:28.626Z,264
2023-04-20T03:18:28.635Z,264
2023-04-20T03:38:28.637Z,264
2023-04-20T03:58:28.680Z,265
2023-04-20T04:18:28.646Z,264
2023-04-20T04:38:28.708Z,265
2023-04-20T04:58:28.672Z,266
2023-04-20T05:18:28.689Z,264
2023-04-20T05:38:28.731Z,263
2023-04-20T06:18:28.723Z,260
2023-04-20T06:38:28.702Z,259
2023-04-20T06:58:28.730Z,264
2023-04-20T07:18:28.755Z,267
2023-04-20T07:38:28.739Z,264
2023-04-20T07:58:28.758Z,262
2023-04-20T08:18:28.761Z,259
2023-04-20T08:38:33.621Z,262
2023-04-20T08:58:28.781Z,253
2023-04-20T09:18:28.773Z,265
2023-04-20T09:38:28.803Z,267
2023-04-20T09:58:28.776Z,266
2023-04-20T10:18:28.902Z,266
2023-04-20T10:38:28.930Z,262
2023-04-20T10:58:28.835Z,263
2023-04-20T11:18:28.821Z,263
2023-04-20T11:38:28.832Z,256
2023-04-20T11:58:28.840Z,259
2023-04-20T12:18:28.833Z,263
2023-04-20T12:38:28.851Z,258
2023-04-20T12:58:28.814Z,259
2023-04-20T13:18:28.844Z,261
2023-04-20T13:38:28.826Z,246
2023-04-20T13:58:28.838Z,240
2023-04-20T14:38:28.826Z,224
2023-04-20T14:58:28.830Z,230
2023-04-20T15:18:28.822Z,218
2023-04-20T15:38:28.795Z,205
2023-04-20T15:58:28.798Z,215
2023-04-20T16:18:28.793Z,230
2023-04-20T16:38:28.788Z,242
2023-04-20T16:58:28.792Z,246
2023-04-20T17:18:28.808Z,248
2023-04-20T17:38:28.777Z,248
2023-04-20T17:58:28.766Z,251
2023-04-20T18:18:28.872Z,252
2023-04-20T18:38:28.760Z,256
2023-04-20T18:58:28.775Z,256
2023-04-20T19:18:28.810Z,260
2023-04-20T19:38:28.796Z,260
2023-04-20T19:58:28.810Z,261
2023-04-20T20:18:28.807Z,261
2023-04-20T20:38:28.815Z,261
2023-04-20T20:58:28.795Z,263
2023-04-20T21:18:28.819Z,262
2023-04-20T21:38:28.871Z,259
2023-04-20T22:18:28.825Z,264
2023-04-20T22:38:28.860Z,264
2023-04-20T22:58:28.857Z,268
2023-04-20T23:18:28.874Z,265
2023-04-20T23:38:28.860Z,271
2023-04-20T23:58:28.881Z,274
